Time;durP1;ratioP1;P1;durP2;ratioP2;P2;SDS_P1;SDS_P2;PMS_P1;PMS_P2;Temp;Humidity;BMP_temperature;BMP_pressure;BME280_temperature;BME280_humidity;BME280_pressure;Samples;Min_cycle;Max_cycle;Signal;HPM_P1;HPM_P2
2023/03/25 00:02:11;;;;;;;7.40;4.90;;;;;;;;;;5001114;28;20434;-42
2023/03/25 00:04:38;;;;;;;8.60;4.93;;;;;;;;;;5001179;28;20414;-42
2023/03/25 00:07:04;;;;;;;5.37;3.67;;;;;;;;;;5000276;28;20560;-43
2023/03/25 00:09:30;;;;;;;7.00;5.30;;;;;;;;;;5002321;28;20521;-42
2023/03/25 00:11:56;;;;;;;7.60;4.87;;;;;;;;;;5001517;28;20525;-43
2023/03/25 00:14:23;;;;;;;8.40;5.00;;;;;;;;;;4995288;28;21050;-43
2023/03/25 00:16:51;;;;;;;7.73;4.90;;;;;;;;;;4999896;28;20477;-42
2023/03/25 00:19:20;;;;;;;7.00;5.47;;;;;;;;;;4994729;28;20468;-43
2023/03/25 00:21:49;;;;;;;8.47;6.40;;;;;;;;;;4992050;28;20431;-42
2023/03/25 00:24:16;;;;;;;7.23;5.63;;;;;;;;;;5000793;28;20563;-44
2023/03/25 00:26:42;;;;;;;6.53;5.93;;;;;;;;;;5001847;28;20914;-43
2023/03/25 00:29:09;;;;;;;8.80;7.37;;;;;;;;;;5000465;28;20423;-43
2023/03/25 00:31:35;;;;;;;6.60;6.00;;;;;;;;;;5005353;28;20532;-43
2023/03/25 00:34:01;;;;;;;8.63;6.63;;;;;;;;;;5002875;28;20500;-42
2023/03/25 00:36:27;;;;;;;9.40;8.40;;;;;;;;;;4995861;28;20493;-43
2023/03/25 00:38:53;;;;;;;7.00;6.60;;;;;;;;;;5004424;28;20415;-43
2023/03/25 00:41:26;;;;;;;8.27;7.63;;;;;;;;;;4982820;28;20486;-43
2023/03/25 00:43:53;;;;;;;13.33;8.33;;;;;;;;;;5000491;28;20434;-42
2023/03/25 00:46:19;;;;;;;8.80;7.40;;;;;;;;;;5000540;28;20473;-43
2023/03/25 00:48:45;;;;;;;11.33;9.90;;;;;;;;;;5000434;28;20419;-42
2023/03/25 00:51:12;;;;;;;12.27;8.37;;;;;;;;;;5002134;28;20434;-43
2023/03/25 00:53:38;;;;;;;13.67;12.40;;;;;;;;;;4997226;28;20481;-42
2023/03/25 00:56:05;;;;;;;14.33;13.43;;;;;;;;;;4997969;28;20422;-42
2023/03/25 00:58:31;;;;;;;7.63;6.73;;;;;;;;;;5001464;28;20505;-43
2023/03/25 01:00:57;;;;;;;9.67;8.77;;;;;;;;;;5003313;28;20473;-43
2023/03/25 01:03:23;;;;;;;9.20;8.30;;;;;;;;;;4997517;28;20413;-42
2023/03/25 01:05:53;;;;;;;8.03;7.37;;;;;;;;;;5002131;28;20423;-43
2023/03/25 01:08:24;;;;;;;6.97;6.37;;;;;;;;;;4995455;28;20427;-43
2023/03/25 01:10:50;;;;;;;7.30;6.80;;;;;;;;;;4988505;28;20487;-43
2023/03/25 01:13:16;;;;;;;10.17;7.17;;;;;;;;;;5003569;28;20996;-42
2023/03/25 01:15:41;;;;;;;10.30;9.50;;;;;;;;;;5000422;28;20460;-43
2023/03/25 01:18:07;;;;;;;10.50;9.70;;;;;;;;;;5002103;28;20766;-42
2023/03/25 01:20:33;;;;;;;10.30;8.80;;;;;;;;;;5005478;28;20838;-43
2023/03/25 01:22:59;;;;;;;8.30;6.40;;;;;;;;;;4997855;28;20403;-44
2023/03/25 01:25:25;;;;;;;10.47;8.60;;;;;;;;;;5004174;28;20425;-42
2023/03/25 01:27:51;;;;;;;9.77;7.57;;;;;;;;;;5004093;28;20436;-44
2023/03/25 01:30:17;;;;;;;9.43;8.60;;;;;;;;;;5008419;28;20433;-42
2023/03/25 01:32:44;;;;;;;10.33;9.53;;;;;;;;;;5002803;28;20411;-43
2023/03/25 01:35:11;;;;;;;10.40;9.50;;;;;;;;;;5002579;28;20791;-44
2023/03/25 01:37:37;;;;;;;14.97;10.67;;;;;;;;;;5002670;28;20534;-43
2023/03/25 01:40:08;;;;;;;10.47;9.50;;;;;;;;;;5002450;28;20558;-42
2023/03/25 01:42:34;;;;;;;10.03;8.10;;;;;;;;;;5003601;28;20496;-42
2023/03/25 01:45:10;;;;;;;10.43;9.53;;;;;;;;;;5003874;28;20591;-41
2023/03/25 01:47:36;;;;;;;13.63;12.53;;;;;;;;;;5007337;28;20422;-42
2023/03/25 01:50:03;;;;;;;14.13;11.23;;;;;;;;;;5002862;28;20832;-42
2023/03/25 01:52:29;;;;;;;13.20;10.60;;;;;;;;;;4999256;28;20419;-42
2023/03/25 01:54:56;;;;;;;8.93;8.17;;;;;;;;;;5003204;28;20934;-42
2023/03/25 01:57:23;;;;;;;12.77;11.73;;;;;;;;;;5003742;28;20918;-43
2023/03/25 01:59:50;;;;;;;20.80;19.13;;;;;;;;;;5006407;28;20454;-42
2023/03/25 02:02:17;;;;;;;17.30;15.40;;;;;;;;;;5002785;28;20939;-43
2023/03/25 02:04:50;;;;;;;22.23;20.43;;;;;;;;;;5004677;28;20414;-42
2023/03/25 02:07:17;;;;;;;19.17;17.77;;;;;;;;;;4997828;28;20434;-42
2023/03/25 02:09:43;;;;;;;23.40;21.50;;;;;;;;;;5008701;28;20436;-42
2023/03/25 02:12:09;;;;;;;12.23;11.23;;;;;;;;;;5007204;28;20443;-42
2023/03/25 02:14:36;;;;;;;10.27;9.43;;;;;;;;;;5002534;28;20961;-43
2023/03/25 02:17:06;;;;;;;13.03;12.10;;;;;;;;;;5003017;28;20425;-42
2023/03/25 02:19:46;;;;;;;13.07;11.83;;;;;;;;;;5003277;28;20460;-43
2023/03/25 02:22:36;;;;;;;15.27;14.07;;;;;;;;;;5003083;28;20427;-42
2023/03/25 02:25:03;;;;;;;11.70;10.63;;;;;;;;;;4997308;28;20907;-42
2023/03/25 02:27:32;;;;;;;15.53;14.17;;;;;;;;;;5004464;28;20412;-43
2023/03/25 02:30:07;;;;;;;16.63;15.33;;;;;;;;;;5004417;28;20442;-44
2023/03/25 02:32:48;;;;;;;13.13;12.17;;;;;;;;;;5004116;28;20414;-42
2023/03/25 02:35:23;;;;;;;11.77;11.00;;;;;;;;;;5002774;28;20445;-42
2023/03/25 02:38:01;;;;;;;17.20;15.67;;;;;;;;;;4997386;28;20434;-43
2023/03/25 02:40:32;;;;;;;18.43;17.07;;;;;;;;;;5008184;28;20467;-43
2023/03/25 02:43:01;;;;;;;13.97;12.63;;;;;;;;;;5003862;28;20768;-42
2023/03/25 02:45:30;;;;;;;15.27;13.97;;;;;;;;;;5001777;28;20646;-42
2023/03/25 02:48:04;;;;;;;13.13;12.17;;;;;;;;;;5003269;28;20473;-43
2023/03/25 02:50:36;;;;;;;16.63;15.20;;;;;;;;;;5002702;28;20431;-43
2023/03/25 02:53:07;;;;;;;12.90;12.07;;;;;;;;;;5002563;28;20415;-43
2023/03/25 02:55:33;;;;;;;14.93;13.60;;;;;;;;;;5003931;28;20419;-42
2023/03/25 02:58:03;;;;;;;14.80;13.50;;;;;;;;;;5006186;28;20424;-42
2023/03/25 03:00:29;;;;;;;8.07;7.30;;;;;;;;;;5006031;28;20525;-42
2023/03/25 03:02:58;;;;;;;9.83;8.93;;;;;;;;;;5001490;28;20413;-42
2023/03/25 03:05:31;;;;;;;13.67;12.43;;;;;;;;;;4997578;28;20853;-42
2023/03/25 03:08:13;;;;;;;6.87;6.37;;;;;;;;;;5005494;28;20426;-43
2023/03/25 03:10:48;;;;;;;10.93;8.60;;;;;;;;;;5002737;28;20510;-43
2023/03/25 03:13:25;;;;;;;11.57;10.57;;;;;;;;;;5002475;28;20419;-42
2023/03/25 03:15:54;;;;;;;13.00;11.93;;;;;;;;;;4994768;28;20418;-44
2023/03/25 03:18:41;;;;;;;12.03;9.57;;;;;;;;;;5002026;28;20418;-43
2023/03/25 03:21:13;;;;;;;15.43;14.10;;;;;;;;;;4996480;28;20466;-42
2023/03/25 03:24:02;;;;;;;19.13;17.73;;;;;;;;;;5004368;28;20412;-42
2023/03/25 03:26:36;;;;;;;19.33;17.67;;;;;;;;;;5003088;28;20419;-44
2023/03/25 03:29:02;;;;;;;19.33;17.90;;;;;;;;;;5003833;28;20417;-43
2023/03/25 03:31:31;;;;;;;19.60;18.00;;;;;;;;;;5004032;28;20449;-43
2023/03/25 03:34:01;;;;;;;19.93;18.43;;;;;;;;;;4999749;28;20433;-42
2023/03/25 03:36:35;;;;;;;22.47;20.90;;;;;;;;;;4996439;28;20510;-43
2023/03/25 03:39:04;;;;;;;19.63;18.13;;;;;;;;;;5004296;28;20850;-42
2023/03/25 03:41:33;;;;;;;20.17;18.37;;;;;;;;;;5000126;28;20432;-42
2023/03/25 03:44:01;;;;;;;21.93;20.07;;;;;;;;;;5002313;28;20513;-44
2023/03/25 03:46:27;;;;;;;27.60;25.07;;;;;;;;;;5002320;28;20411;-42
2023/03/25 03:49:00;;;;;;;24.80;22.87;;;;;;;;;;5001355;28;20419;-43
2023/03/25 03:51:29;;;;;;;23.17;21.23;;;;;;;;;;5001798;28;20439;-43
2023/03/25 03:54:07;;;;;;;16.50;11.37;;;;;;;;;;5005931;28;20425;-42
2023/03/25 03:56:35;;;;;;;14.93;13.90;;;;;;;;;;5002180;28;20940;-42
2023/03/25 03:59:02;;;;;;;17.03;15.73;;;;;;;;;;5001789;28;20829;-42
2023/03/25 04:01:44;;;;;;;19.17;17.57;;;;;;;;;;4997057;28;20431;-42
2023/03/25 04:04:12;;;;;;;20.50;18.83;;;;;;;;;;5004636;28;20423;-42
2023/03/25 04:06:40;;;;;;;21.93;20.13;;;;;;;;;;5002050;28;20429;-43
2023/03/25 04:09:17;;;;;;;20.83;19.07;;;;;;;;;;5002292;28;20427;-43
2023/03/25 04:11:45;;;;;;;22.27;20.27;;;;;;;;;;5003301;28;20425;-44
2023/03/25 04:14:12;;;;;;;23.67;21.83;;;;;;;;;;5001110;28;20415;-44
2023/03/25 04:16:38;;;;;;;22.10;20.03;;;;;;;;;;5002122;28;20493;-44
2023/03/25 04:19:05;;;;;;;23.30;21.27;;;;;;;;;;5001271;28;20842;-43
2023/03/25 04:21:31;;;;;;;23.57;21.43;;;;;;;;;;5006472;28;20424;-43
2023/03/25 04:24:00;;;;;;;24.90;22.70;;;;;;;;;;5002169;28;20492;-43
2023/03/25 04:26:28;;;;;;;24.83;22.47;;;;;;;;;;4998548;28;20418;-43
2023/03/25 04:28:58;;;;;;;22.40;20.50;;;;;;;;;;5000754;28;20419;-43
2023/03/25 04:31:24;;;;;;;20.17;18.37;;;;;;;;;;4999598;28;20445;-43
2023/03/25 04:33:51;;;;;;;23.17;21.37;;;;;;;;;;5004664;28;20450;-43
2023/03/25 04:36:17;;;;;;;25.07;22.43;;;;;;;;;;5000605;28;20492;-43
2023/03/25 04:38:44;;;;;;;19.67;17.70;;;;;;;;;;5004985;28;20454;-42
2023/03/25 04:41:11;;;;;;;9.00;8.40;;;;;;;;;;5001732;28;20472;-43
2023/03/25 04:43:38;;;;;;;11.13;10.00;;;;;;;;;;4996879;28;20439;-43
2023/03/25 04:46:04;;;;;;;10.00;9.30;;;;;;;;;;5003869;28;20413;-44
2023/03/25 04:48:30;;;;;;;18.83;9.93;;;;;;;;;;5001828;28;20418;-44
2023/03/25 04:50:57;;;;;;;9.90;8.97;;;;;;;;;;5003521;28;20800;-42
2023/03/25 04:53:24;;;;;;;12.63;11.50;;;;;;;;;;5000811;28;20412;-43
2023/03/25 04:55:50;;;;;;;12.07;10.33;;;;;;;;;;4999596;28;20424;-43
2023/03/25 04:58:16;;;;;;;11.00;10.07;;;;;;;;;;5003709;28;20472;-43
2023/03/25 05:00:43;;;;;;;12.03;11.27;;;;;;;;;;5000459;28;20473;-43
2023/03/25 05:03:10;;;;;;;9.90;8.83;;;;;;;;;;5003401;28;20841;-43
2023/03/25 05:05:36;;;;;;;10.73;7.97;;;;;;;;;;5000087;28;20849;-43
2023/03/25 05:08:02;;;;;;;13.83;8.50;;;;;;;;;;5000798;28;20412;-43
2023/03/25 05:10:28;;;;;;;8.83;8.00;;;;;;;;;;5001072;28;20487;-43
2023/03/25 05:13:02;;;;;;;10.10;9.27;;;;;;;;;;5000512;28;20418;-43
2023/03/25 05:15:29;;;;;;;11.47;9.07;;;;;;;;;;5001212;28;20431;-43
2023/03/25 05:17:55;;;;;;;13.30;12.03;;;;;;;;;;5005059;28;20432;-44
2023/03/25 05:20:21;;;;;;;9.33;8.40;;;;;;;;;;5004421;28;20859;-43
2023/03/25 05:22:47;;;;;;;11.30;10.27;;;;;;;;;;4998439;28;20459;-43
2023/03/25 05:25:13;;;;;;;11.80;9.63;;;;;;;;;;4997817;28;20937;-43
2023/03/25 05:27:39;;;;;;;10.93;9.33;;;;;;;;;;5002548;28;20504;-43
2023/03/25 05:30:06;;;;;;;10.00;7.83;;;;;;;;;;5003269;28;20444;-44
2023/03/25 05:32:32;;;;;;;9.90;4.57;;;;;;;;;;4998957;28;20484;-43
2023/03/25 05:34:59;;;;;;;10.40;4.37;;;;;;;;;;5003010;28;20929;-43
2023/03/25 05:37:25;;;;;;;11.20;5.90;;;;;;;;;;5002798;28;20416;-43
2023/03/25 05:39:51;;;;;;;8.80;7.90;;;;;;;;;;4987459;28;20472;-42
2023/03/25 05:42:21;;;;;;;6.43;5.47;;;;;;;;;;4991624;28;20437;-43
2023/03/25 05:44:49;;;;;;;12.63;7.77;;;;;;;;;;4992867;28;20438;-43
2023/03/25 05:47:16;;;;;;;9.03;5.70;;;;;;;;;;5000330;28;20422;-42
2023/03/25 05:49:42;;;;;;;8.97;7.40;;;;;;;;;;5002387;28;20412;-42
2023/03/25 05:52:10;;;;;;;8.80;7.90;;;;;;;;;;4999285;28;20885;-43
2023/03/25 05:54:40;;;;;;;9.10;7.23;;;;;;;;;;4998627;28;20516;-43
2023/03/25 05:57:06;;;;;;;8.60;7.33;;;;;;;;;;5004885;28;20413;-43
2023/03/25 05:59:32;;;;;;;12.03;8.40;;;;;;;;;;5005991;28;21073;-43
2023/03/25 06:01:58;;;;;;;14.23;8.70;;;;;;;;;;5001213;28;20969;-43
2023/03/25 06:04:24;;;;;;;10.07;8.90;;;;;;;;;;4999567;28;20504;-42
2023/03/25 06:06:50;;;;;;;19.10;8.47;;;;;;;;;;5004238;28;20484;-43
2023/03/25 06:09:17;;;;;;;9.47;8.70;;;;;;;;;;5003328;28;20423;-43
2023/03/25 06:11:43;;;;;;;14.20;9.50;;;;;;;;;;5005341;28;20432;-42
2023/03/25 06:14:09;;;;;;;8.73;8.10;;;;;;;;;;5006371;28;20489;-43
2023/03/25 06:16:35;;;;;;;11.43;10.30;;;;;;;;;;5007690;28;20423;-42
2023/03/25 06:19:01;;;;;;;11.47;10.50;;;;;;;;;;5003741;28;20408;-44
2023/03/25 06:21:28;;;;;;;12.20;10.80;;;;;;;;;;4999459;28;20472;-44
2023/03/25 06:23:57;;;;;;;9.33;8.50;;;;;;;;;;4999693;28;20967;-44
2023/03/25 06:26:23;;;;;;;14.93;9.13;;;;;;;;;;5002842;28;20806;-44
2023/03/25 06:28:49;;;;;;;10.33;9.10;;;;;;;;;;5006368;28;20454;-44
2023/03/25 06:31:16;;;;;;;11.70;7.67;;;;;;;;;;5003374;28;20969;-43
2023/03/25 06:33:43;;;;;;;9.83;8.03;;;;;;;;;;5005822;28;20447;-43
2023/03/25 06:36:10;;;;;;;10.73;8.93;;;;;;;;;;5001938;28;20417;-43
2023/03/25 06:38:36;;;;;;;10.40;9.50;;;;;;;;;;4993560;28;20425;-43
2023/03/25 06:41:02;;;;;;;9.70;8.77;;;;;;;;;;5003542;28;20557;-44
2023/03/25 06:43:28;;;;;;;8.77;8.07;;;;;;;;;;5002669;28;20871;-43
2023/03/25 06:45:54;;;;;;;11.90;9.13;;;;;;;;;;5004363;28;20444;-43
2023/03/25 06:48:20;;;;;;;10.00;9.00;;;;;;;;;;5002161;28;20414;-44
2023/03/25 06:50:46;;;;;;;15.10;9.00;;;;;;;;;;5003747;28;20941;-43
2023/03/25 06:53:12;;;;;;;15.10;13.60;;;;;;;;;;4998981;28;20866;-43
2023/03/25 06:55:38;;;;;;;14.33;12.80;;;;;;;;;;5000887;28;20430;-43
2023/03/25 06:58:04;;;;;;;12.93;11.63;;;;;;;;;;5003773;28;20447;-42
2023/03/25 07:00:31;;;;;;;18.00;14.20;;;;;;;;;;5001406;28;20473;-44
2023/03/25 07:02:57;;;;;;;15.93;12.40;;;;;;;;;;5003765;28;20418;-43
2023/03/25 07:05:23;;;;;;;10.17;8.50;;;;;;;;;;5002093;28;20405;-43
2023/03/25 07:07:49;;;;;;;12.93;8.93;;;;;;;;;;5002009;28;20424;-42
2023/03/25 07:10:16;;;;;;;12.57;9.30;;;;;;;;;;5001857;28;20435;-42
2023/03/25 07:12:42;;;;;;;8.30;6.50;;;;;;;;;;5007100;28;20428;-43
2023/03/25 07:15:08;;;;;;;13.00;5.83;;;;;;;;;;5002847;28;20412;-42
2023/03/25 07:17:34;;;;;;;9.63;7.90;;;;;;;;;;4998734;28;20429;-43
2023/03/25 07:20:00;;;;;;;11.63;8.50;;;;;;;;;;5004026;28;20469;-43
2023/03/25 07:22:26;;;;;;;11.67;6.07;;;;;;;;;;5001331;28;20411;-43
2023/03/25 07:24:52;;;;;;;12.10;5.33;;;;;;;;;;5000770;28;20794;-43
2023/03/25 07:27:18;;;;;;;8.50;7.80;;;;;;;;;;5001721;28;20408;-44
2023/03/25 07:29:45;;;;;;;12.33;11.30;;;;;;;;;;5004716;28;20422;-43
2023/03/25 07:32:10;;;;;;;13.10;12.03;;;;;;;;;;5002286;28;20475;-43
2023/03/25 07:34:37;;;;;;;12.77;11.50;;;;;;;;;;4997188;28;20425;-43
2023/03/25 07:37:03;;;;;;;12.53;11.67;;;;;;;;;;5004983;28;20413;-43
2023/03/25 07:39:29;;;;;;;12.63;11.57;;;;;;;;;;5001919;28;20834;-43
2023/03/25 07:41:55;;;;;;;13.40;10.67;;;;;;;;;;5003489;28;20421;-43
2023/03/25 07:44:21;;;;;;;10.80;9.77;;;;;;;;;;5001361;28;20434;-44
2023/03/25 07:46:47;;;;;;;11.60;10.43;;;;;;;;;;5003063;28;20473;-43
2023/03/25 07:49:15;;;;;;;12.63;11.47;;;;;;;;;;5001329;28;20827;-43
2023/03/25 07:51:40;;;;;;;13.83;9.47;;;;;;;;;;5001535;28;20442;-43
2023/03/25 07:54:06;;;;;;;9.50;8.57;;;;;;;;;;5003478;28;20943;-43
2023/03/25 07:56:33;;;;;;;13.23;11.93;;;;;;;;;;5000040;28;20415;-43
2023/03/25 07:58:59;;;;;;;17.10;13.13;;;;;;;;;;5001141;28;20419;-43
2023/03/25 08:01:25;;;;;;;13.03;7.27;;;;;;;;;;5001054;28;20469;-43
2023/03/25 08:03:51;;;;;;;8.83;6.70;;;;;;;;;;5001111;28;20921;-43
2023/03/25 08:06:17;;;;;;;7.33;4.77;;;;;;;;;;5001188;28;20496;-43
2023/03/25 08:08:43;;;;;;;11.80;7.40;;;;;;;;;;5006192;28;20916;-43
2023/03/25 08:11:10;;;;;;;17.03;3.90;;;;;;;;;;5002845;28;20459;-44
2023/03/25 08:13:36;;;;;;;8.43;6.53;;;;;;;;;;4998050;28;20791;-43
2023/03/25 08:16:02;;;;;;;5.97;4.27;;;;;;;;;;4999063;28;20503;-43
2023/03/25 08:18:28;;;;;;;7.80;4.23;;;;;;;;;;5001824;28;20419;-43
2023/03/25 08:20:54;;;;;;;7.97;4.57;;;;;;;;;;5003882;28;20466;-43
2023/03/25 08:23:21;;;;;;;8.23;3.70;;;;;;;;;;4998532;28;20478;-42
2023/03/25 08:25:48;;;;;;;16.20;3.77;;;;;;;;;;4996769;28;20470;-43
2023/03/25 08:28:16;;;;;;;4.13;3.57;;;;;;;;;;5001451;28;20416;-44
2023/03/25 08:30:42;;;;;;;11.27;4.43;;;;;;;;;;4996063;28;20450;-44
2023/03/25 08:33:08;;;;;;;14.83;7.50;;;;;;;;;;5003988;28;20762;-44
2023/03/25 08:35:35;;;;;;;12.10;5.27;;;;;;;;;;5001167;28;20422;-43
2023/03/25 08:38:04;;;;;;;6.97;4.80;;;;;;;;;;5002164;28;20414;-43
2023/03/25 08:40:31;;;;;;;8.77;5.57;;;;;;;;;;5001377;28;20885;-43
2023/03/25 08:42:57;;;;;;;9.83;4.37;;;;;;;;;;5001007;28;20853;-43
2023/03/25 08:45:23;;;;;;;9.13;5.30;;;;;;;;;;5000953;28;20416;-44
2023/03/25 08:47:49;;;;;;;10.97;3.27;;;;;;;;;;5000355;28;20421;-43
2023/03/25 08:50:15;;;;;;;9.53;4.63;;;;;;;;;;5004629;28;20518;-43
2023/03/25 08:52:41;;;;;;;13.50;4.23;;;;;;;;;;4996364;28;20459;-43
2023/03/25 08:55:07;;;;;;;8.07;3.60;;;;;;;;;;4998663;28;20467;-43
2023/03/25 08:57:35;;;;;;;9.50;4.47;;;;;;;;;;5000977;28;20408;-43
2023/03/25 09:00:01;;;;;;;16.73;4.90;;;;;;;;;;4997291;28;20465;-43
2023/03/25 09:02:27;;;;;;;6.83;4.40;;;;;;;;;;5006675;28;20419;-43
2023/03/25 09:04:53;;;;;;;10.10;3.47;;;;;;;;;;4999930;28;20916;-43
2023/03/25 09:07:22;;;;;;;13.63;5.13;;;;;;;;;;5002782;28;20461;-43
2023/03/25 09:09:47;;;;;;;15.83;7.80;;;;;;;;;;4996302;28;20415;-43
2023/03/25 09:12:14;;;;;;;11.83;3.33;;;;;;;;;;4996371;28;20932;-43
2023/03/25 09:14:40;;;;;;;7.93;4.30;;;;;;;;;;5002151;28;20478;-43
2023/03/25 09:17:06;;;;;;;9.10;3.97;;;;;;;;;;5002113;28;20974;-43
2023/03/25 09:19:36;;;;;;;8.10;4.40;;;;;;;;;;4996751;28;20423;-43
2023/03/25 09:22:02;;;;;;;9.67;4.93;;;;;;;;;;4998847;28;20794;-43
2023/03/25 09:24:28;;;;;;;10.63;4.90;;;;;;;;;;4999361;28;20434;-43
2023/03/25 09:26:54;;;;;;;6.00;3.33;;;;;;;;;;4996834;28;20411;-44
2023/03/25 09:29:20;;;;;;;11.20;5.27;;;;;;;;;;5002598;28;20407;-43
2023/03/25 09:31:46;;;;;;;10.13;3.63;;;;;;;;;;4999850;28;20484;-44
2023/03/25 09:34:12;;;;;;;11.70;3.90;;;;;;;;;;5000660;28;20475;-44
2023/03/25 09:36:38;;;;;;;10.30;6.10;;;;;;;;;;5002206;28;20408;-43
2023/03/25 09:39:04;;;;;;;8.37;4.83;;;;;;;;;;5001109;28;20499;-43
2023/03/25 09:41:41;;;;;;;14.90;5.73;;;;;;;;;;5004123;28;20838;-43
2023/03/25 09:44:16;;;;;;;14.70;4.90;;;;;;;;;;5003730;28;20784;-43
2023/03/25 09:46:43;;;;;;;11.77;4.27;;;;;;;;;;5009017;28;20479;-43
2023/03/25 09:49:16;;;;;;;15.20;4.97;;;;;;;;;;5006161;28;20417;-43
2023/03/25 09:51:44;;;;;;;8.80;3.97;;;;;;;;;;4997111;28;21163;-43
2023/03/25 09:54:20;;;;;;;9.90;2.67;;;;;;;;;;5003652;28;20933;-43
2023/03/25 09:56:46;;;;;;;11.50;4.67;;;;;;;;;;5006909;28;20498;-43
2023/03/25 09:59:18;;;;;;;8.10;4.27;;;;;;;;;;5005507;28;20466;-44
2023/03/25 10:01:49;;;;;;;11.37;4.13;;;;;;;;;;5006073;28;20436;-43
2023/03/25 10:04:15;;;;;;;11.43;4.10;;;;;;;;;;5003670;28;20411;-44
2023/03/25 10:07:01;;;;;;;8.93;3.93;;;;;;;;;;5006336;28;20420;-42
2023/03/25 10:09:33;;;;;;;9.33;4.07;;;;;;;;;;4996893;28;20477;-42
2023/03/25 10:12:14;;;;;;;7.23;3.70;;;;;;;;;;4994868;28;20434;-42
2023/03/25 10:14:49;;;;;;;9.73;4.30;;;;;;;;;;4995477;28;20798;-42
2023/03/25 10:17:21;;;;;;;13.83;5.70;;;;;;;;;;4994671;28;20434;-43
2023/03/25 10:19:53;;;;;;;15.07;9.47;;;;;;;;;;4995028;28;20464;-42
2023/03/25 10:22:28;;;;;;;11.43;4.33;;;;;;;;;;4993247;28;20473;-43
2023/03/25 10:25:12;;;;;;;11.60;5.17;;;;;;;;;;4994798;28;20828;-43
2023/03/25 10:27:40;;;;;;;8.23;4.80;;;;;;;;;;4994874;28;20408;-42
2023/03/25 10:30:10;;;;;;;7.37;4.13;;;;;;;;;;4994599;28;20406;-42
2023/03/25 10:32:40;;;;;;;14.77;3.30;;;;;;;;;;4994940;28;20457;-42
2023/03/25 10:35:10;;;;;;;9.70;4.60;;;;;;;;;;4975322;28;20515;-43
2023/03/25 10:37:40;;;;;;;8.63;4.40;;;;;;;;;;4992611;28;20423;-43
2023/03/25 10:40:13;;;;;;;6.57;3.57;;;;;;;;;;4994314;28;20514;-42
2023/03/25 10:42:41;;;;;;;7.23;3.37;;;;;;;;;;4994561;28;20419;-42
2023/03/25 10:45:12;;;;;;;11.70;5.17;;;;;;;;;;4994634;28;20427;-42
2023/03/25 10:47:40;;;;;;;8.87;5.10;;;;;;;;;;4994042;28;20505;-44
2023/03/25 10:50:07;;;;;;;8.93;3.60;;;;;;;;;;4993131;28;20428;-43
2023/03/25 10:52:34;;;;;;;10.43;4.70;;;;;;;;;;4992747;28;20766;-43
2023/03/25 10:55:00;;;;;;;16.60;5.80;;;;;;;;;;4992938;28;20429;-42
2023/03/25 10:57:27;;;;;;;9.20;3.33;;;;;;;;;;4994331;28;20509;-43
2023/03/25 10:59:59;;;;;;;12.23;6.20;;;;;;;;;;4993957;28;20467;-42
2023/03/25 11:02:27;;;;;;;10.23;4.40;;;;;;;;;;4994050;28;20429;-42
2023/03/25 11:04:56;;;;;;;13.60;4.00;;;;;;;;;;4994307;28;20561;-43
2023/03/25 11:07:25;;;;;;;13.80;4.50;;;;;;;;;;4993884;28;20494;-45
2023/03/25 11:09:51;;;;;;;9.97;5.53;;;;;;;;;;4993845;28;20468;-42
2023/03/25 11:12:18;;;;;;;5.53;3.30;;;;;;;;;;4994025;28;20440;-43
2023/03/25 11:14:44;;;;;;;7.77;4.50;;;;;;;;;;4993781;28;20418;-44
2023/03/25 11:17:14;;;;;;;8.07;3.67;;;;;;;;;;4994110;28;20734;-42
2023/03/25 11:19:40;;;;;;;10.70;5.13;;;;;;;;;;4993656;28;20462;-42
2023/03/25 11:22:27;;;;;;;6.80;3.70;;;;;;;;;;4992031;28;20450;-42
2023/03/25 11:24:57;;;;;;;14.47;5.63;;;;;;;;;;4992430;28;20483;-43
2023/03/25 11:27:27;;;;;;;10.80;5.07;;;;;;;;;;4993113;28;20445;-44
2023/03/25 11:29:54;;;;;;;16.87;6.83;;;;;;;;;;4992363;28;20425;-43
2023/03/25 11:32:24;;;;;;;5.60;3.17;;;;;;;;;;4993723;28;20556;-45
2023/03/25 11:34:51;;;;;;;9.40;4.50;;;;;;;;;;4993660;28;20440;-44
2023/03/25 11:37:19;;;;;;;8.43;3.80;;;;;;;;;;4993570;28;20412;-43
2023/03/25 11:39:49;;;;;;;7.00;4.77;;;;;;;;;;4993073;28;20997;-43
2023/03/25 11:42:21;;;;;;;9.07;4.07;;;;;;;;;;4993476;28;20835;-43
2023/03/25 11:44:55;;;;;;;7.97;4.00;;;;;;;;;;4993333;28;20444;-43
2023/03/25 11:47:24;;;;;;;8.47;3.53;;;;;;;;;;4993375;28;20425;-42
2023/03/25 11:49:52;;;;;;;10.33;6.07;;;;;;;;;;4993238;28;20420;-42
2023/03/25 11:52:20;;;;;;;12.93;5.47;;;;;;;;;;4992864;28;20470;-45
2023/03/25 11:54:46;;;;;;;7.10;4.03;;;;;;;;;;4993113;28;20977;-44
2023/03/25 11:57:15;;;;;;;8.80;4.13;;;;;;;;;;4991563;28;20436;-43
2023/03/25 11:59:45;;;;;;;10.80;4.77;;;;;;;;;;4992081;28;20505;-42
2023/03/25 12:02:18;;;;;;;11.87;3.53;;;;;;;;;;4992995;28;20777;-42
2023/03/25 12:04:58;;;;;;;14.57;6.07;;;;;;;;;;4988715;28;20422;-42
2023/03/25 12:07:24;;;;;;;5.90;4.03;;;;;;;;;;4993043;28;20417;-43
2023/03/25 12:09:55;;;;;;;10.80;7.13;;;;;;;;;;4992557;28;20422;-42
2023/03/25 12:12:33;;;;;;;10.23;6.20;;;;;;;;;;5003683;28;20408;-43
2023/03/25 12:15:18;;;;;;;4.30;3.27;;;;;;;;;;5000005;28;20981;-43
2023/03/25 12:18:05;;;;;;;10.03;4.20;;;;;;;;;;5000972;28;20502;-42
2023/03/25 12:20:31;;;;;;;9.70;5.27;;;;;;;;;;5004951;28;20980;-42
2023/03/25 12:23:10;;;;;;;11.00;5.23;;;;;;;;;;5000574;28;20442;-43
2023/03/25 12:25:48;;;;;;;15.83;9.43;;;;;;;;;;4993210;28;20795;-43
2023/03/25 12:28:20;;;;;;;9.60;4.40;;;;;;;;;;4995259;28;20458;-43
2023/03/25 12:31:01;;;;;;;10.57;4.80;;;;;;;;;;5002654;28;20445;-42
2023/03/25 12:33:46;;;;;;;11.53;7.27;;;;;;;;;;5001704;28;20414;-43
2023/03/25 12:36:15;;;;;;;12.10;4.73;;;;;;;;;;5001483;28;20418;-42
2023/03/25 12:38:47;;;;;;;3.43;2.53;;;;;;;;;;5003618;28;20425;-43
2023/03/25 12:41:27;;;;;;;11.17;3.60;;;;;;;;;;4996129;28;20464;-43
2023/03/25 12:44:05;;;;;;;12.80;4.13;;;;;;;;;;5000394;28;20892;-43
2023/03/25 12:46:52;;;;;;;10.97;5.23;;;;;;;;;;5001778;28;20384;-44
2023/03/25 12:49:34;;;;;;;7.50;4.17;;;;;;;;;;5002265;28;20473;-43
2023/03/25 12:52:11;;;;;;;7.00;3.00;;;;;;;;;;4997689;28;20438;-42
2023/03/25 12:54:44;;;;;;;9.20;4.63;;;;;;;;;;5003315;28;20494;-43
2023/03/25 12:57:24;;;;;;;6.63;3.90;;;;;;;;;;4999240;28;20424;-43
2023/03/25 12:59:50;;;;;;;9.37;5.80;;;;;;;;;;4995992;28;20443;-43
2023/03/25 13:02:35;;;;;;;4.10;3.33;;;;;;;;;;5006045;28;20445;-43
2023/03/25 13:05:01;;;;;;;7.17;3.50;;;;;;;;;;4996330;28;20415;-43
2023/03/25 13:07:39;;;;;;;6.57;4.07;;;;;;;;;;4998084;28;20906;-45
2023/03/25 13:10:19;;;;;;;7.20;3.73;;;;;;;;;;4977076;28;20503;-44
2023/03/25 13:12:56;;;;;;;11.80;3.67;;;;;;;;;;4992203;28;20423;-42
2023/03/25 13:15:26;;;;;;;8.43;2.80;;;;;;;;;;5002089;28;20375;-42
2023/03/25 13:18:04;;;;;;;12.40;4.03;;;;;;;;;;5007618;28;20420;-42
2023/03/25 13:20:34;;;;;;;8.63;3.47;;;;;;;;;;5003157;28;20464;-43
2023/03/25 13:23:02;;;;;;;6.33;3.77;;;;;;;;;;5005515;28;20382;-42
2023/03/25 13:25:31;;;;;;;9.17;3.37;;;;;;;;;;5005535;28;20682;-43
2023/03/25 13:28:00;;;;;;;11.20;5.83;;;;;;;;;;4996685;28;20420;-43
2023/03/25 13:30:37;;;;;;;8.10;3.90;;;;;;;;;;5010033;28;20434;-42
2023/03/25 13:33:15;;;;;;;9.80;3.50;;;;;;;;;;5006484;28;20490;-43
2023/03/25 13:35:47;;;;;;;12.90;3.60;;;;;;;;;;5002314;28;20790;-42
2023/03/25 13:38:16;;;;;;;7.67;3.63;;;;;;;;;;5001733;28;20840;-43
2023/03/25 13:40:46;;;;;;;11.10;4.53;;;;;;;;;;5006211;28;20498;-42
2023/03/25 13:43:15;;;;;;;8.10;3.60;;;;;;;;;;5006522;28;20435;-43
2023/03/25 13:45:41;;;;;;;5.70;4.00;;;;;;;;;;5006705;28;20496;-42
2023/03/25 13:48:13;;;;;;;12.80;3.73;;;;;;;;;;5005488;28;20503;-42
2023/03/25 13:50:39;;;;;;;9.27;3.67;;;;;;;;;;5006931;28;20443;-43
2023/03/25 13:53:19;;;;;;;10.00;4.87;;;;;;;;;;5003074;28;20774;-42
2023/03/25 13:55:56;;;;;;;11.97;5.90;;;;;;;;;;4993941;28;20510;-43
2023/03/25 13:58:30;;;;;;;12.90;3.10;;;;;;;;;;4995595;28;20415;-42
2023/03/25 14:01:19;;;;;;;11.57;3.17;;;;;;;;;;4994422;28;20534;-43
2023/03/25 14:03:48;;;;;;;3.40;2.60;;;;;;;;;;4995319;28;20414;-45
2023/03/25 14:06:33;;;;;;;8.87;3.23;;;;;;;;;;4994450;28;20430;-43
2023/03/25 14:09:09;;;;;;;5.90;2.60;;;;;;;;;;4995340;28;20782;-42
2023/03/25 14:11:42;;;;;;;5.57;3.63;;;;;;;;;;5003033;28;20431;-42
2023/03/25 14:14:10;;;;;;;5.60;2.93;;;;;;;;;;5004950;28;20410;-42
2023/03/25 14:16:41;;;;;;;6.57;3.57;;;;;;;;;;5005273;28;20874;-43
2023/03/25 14:19:10;;;;;;;3.50;1.93;;;;;;;;;;5003780;28;20806;-43
2023/03/25 14:21:37;;;;;;;4.07;2.33;;;;;;;;;;5004347;28;20507;-42
2023/03/25 14:24:10;;;;;;;5.50;2.37;;;;;;;;;;5000751;28;20433;-43
2023/03/25 14:26:40;;;;;;;4.13;3.17;;;;;;;;;;5001323;28;20406;-43
2023/03/25 14:29:18;;;;;;;8.47;2.93;;;;;;;;;;5006467;28;20774;-42
2023/03/25 14:31:59;;;;;;;4.07;2.67;;;;;;;;;;5001061;28;20946;-43
2023/03/25 14:34:26;;;;;;;5.17;1.87;;;;;;;;;;4999833;28;20415;-44
2023/03/25 14:36:51;;;;;;;5.93;3.07;;;;;;;;;;5001886;28;20975;-44
2023/03/25 14:39:29;;;;;;;3.70;2.13;;;;;;;;;;5009787;28;20382;-43
2023/03/25 14:42:02;;;;;;;5.43;2.70;;;;;;;;;;4995846;28;20444;-42
2023/03/25 14:44:39;;;;;;;2.27;2.07;;;;;;;;;;5001553;28;20429;-43